Time;durP1;ratioP1;P1;durP2;ratioP2;P2;SDS_P1;SDS_P2;PMS_P1;PMS_P2;Temp;Humidity;BMP_temperature;BMP_pressure;BME280_temperature;BME280_humidity;BME280_pressure;Samples;Min_cycle;Max_cycle;Signal;HPM_P1;HPM_P2
2024/02/15 00:00:15;;;;;;;14.25;5.85;;;12.60;97.30;;;;;;5012029;28;20045;-84
2024/02/15 00:02:40;;;;;;;13.48;5.57;;;12.60;97.30;;;;;;5009049;28;20013;-84
2024/02/15 00:05:07;;;;;;;14.73;5.60;;;12.60;97.30;;;;;;4992052;28;20407;-84
2024/02/15 00:07:34;;;;;;;14.80;5.80;;;12.70;97.30;;;;;;4986451;28;20095;-84
2024/02/15 00:10:00;;;;;;;15.15;5.82;;;12.60;97.30;;;;;;4997119;28;20478;-85
2024/02/15 00:12:26;;;;;;;12.85;6.25;;;12.70;97.30;;;;;;4998143;28;20034;-85
2024/02/15 00:14:51;;;;;;;16.08;5.63;;;12.70;97.20;;;;;;4992584;28;20401;-85
2024/02/15 00:17:18;;;;;;;13.20;5.38;;;12.70;97.10;;;;;;4996988;28;20141;-85
2024/02/15 00:19:43;;;;;;;19.15;6.25;;;12.70;97.10;;;;;;4993322;28;20105;-84
2024/02/15 00:22:09;;;;;;;17.73;6.35;;;12.70;97.00;;;;;;4994685;28;20022;-83
2024/02/15 00:24:41;;;;;;;16.85;5.85;;;12.80;97.00;;;;;;4993884;28;20486;-85
2024/02/15 00:27:07;;;;;;;18.48;5.88;;;12.80;97.00;;;;;;4989876;28;20025;-84
2024/02/15 00:29:34;;;;;;;15.10;5.47;;;12.70;96.90;;;;;;4996608;28;20034;-85
2024/02/15 00:32:00;;;;;;;14.70;5.78;;;12.70;96.90;;;;;;4993720;28;20605;-84
2024/02/15 00:34:26;;;;;;;13.20;5.97;;;12.80;97.00;;;;;;4992391;28;20049;-84
2024/02/15 00:36:52;;;;;;;21.15;6.03;;;12.80;96.90;;;;;;4994897;28;20075;-84
2024/02/15 00:39:19;;;;;;;18.88;6.30;;;12.80;97.00;;;;;;4994184;28;20046;-85
2024/02/15 00:41:45;;;;;;;15.68;5.80;;;12.80;97.00;;;;;;4991984;28;20026;-84
2024/02/15 00:44:11;;;;;;;19.73;6.13;;;12.80;97.00;;;;;;4992440;28;20384;-84
2024/02/15 00:46:37;;;;;;;12.25;5.32;;;12.90;97.00;;;;;;4994889;28;20022;-84
2024/02/15 00:49:06;;;;;;;12.55;5.28;;;12.80;96.90;;;;;;4992594;28;20048;-84
2024/02/15 00:51:33;;;;;;;15.48;6.22;;;12.90;96.80;;;;;;4999851;28;20017;-84
2024/02/15 00:54:00;;;;;;;14.93;5.85;;;12.80;96.90;;;;;;4996163;28;20433;-84
2024/02/15 00:56:26;;;;;;;16.15;6.00;;;12.80;96.80;;;;;;4997812;28;20021;-85
2024/02/15 00:58:51;;;;;;;14.27;6.45;;;12.80;96.90;;;;;;4994091;28;23017;-85
2024/02/15 01:01:17;;;;;;;14.57;5.63;;;12.80;96.90;;;;;;5011704;28;20026;-85
2024/02/15 01:03:43;;;;;;;13.02;5.75;;;12.80;96.90;;;;;;4999057;28;20038;-85
2024/02/15 01:06:09;;;;;;;18.88;6.57;;;12.80;96.90;;;;;;4997443;28;20623;-84
2024/02/15 01:08:34;;;;;;;17.50;6.30;;;12.80;96.90;;;;;;4996094;28;20088;-85
2024/02/15 01:11:00;;;;;;;13.13;6.13;;;12.80;96.90;;;;;;4994309;28;20022;-85
2024/02/15 01:13:26;;;;;;;14.23;6.25;;;12.80;97.00;;;;;;4992161;28;20015;-85
2024/02/15 01:15:51;;;;;;;16.30;6.57;;;12.80;96.90;;;;;;4991484;28;20034;-85
2024/02/15 01:18:17;;;;;;;19.00;6.63;;;12.80;97.00;;;;;;4995715;28;20011;-85
2024/02/15 01:20:43;;;;;;;16.75;6.88;;;12.80;97.00;;;;;;4994051;28;20141;-85
2024/02/15 01:23:09;;;;;;;18.90;7.07;;;12.80;96.90;;;;;;5002383;28;20034;-85
2024/02/15 01:25:34;;;;;;;14.35;6.60;;;12.80;96.90;;;;;;4984499;28;20673;-84
2024/02/15 01:28:02;;;;;;;16.92;7.75;;;12.80;97.00;;;;;;4992716;28;20077;-84
2024/02/15 01:30:28;;;;;;;20.42;6.90;;;12.90;97.00;;;;;;4993165;28;20526;-84
2024/02/15 01:32:54;;;;;;;13.82;6.68;;;12.80;97.10;;;;;;4991463;28;20646;-84
2024/02/15 01:35:20;;;;;;;17.15;7.43;;;12.80;97.20;;;;;;4994497;28;20453;-84
2024/02/15 01:37:46;;;;;;;15.88;7.43;;;12.70;97.30;;;;;;4990754;28;20105;-84
2024/02/15 01:40:12;;;;;;;21.65;7.07;;;12.80;97.30;;;;;;4990342;28;20027;-85
2024/02/15 01:42:39;;;;;;;13.38;7.00;;;12.70;97.40;;;;;;4992008;28;20430;-84
2024/02/15 01:45:05;;;;;;;18.20;7.53;;;12.70;97.40;;;;;;4987092;28;20101;-84
2024/02/15 01:47:32;;;;;;;17.65;7.15;;;12.70;97.40;;;;;;4991972;28;20062;-84
2024/02/15 01:49:57;;;;;;;16.63;7.47;;;12.70;97.40;;;;;;4989541;28;20052;-84
2024/02/15 01:52:23;;;;;;;16.20;7.57;;;12.70;97.40;;;;;;4991712;28;20022;-85
2024/02/15 01:54:52;;;;;;;14.75;7.00;;;12.70;97.40;;;;;;4994444;28;20526;-84
2024/02/15 01:57:21;;;;;;;19.45;7.40;;;12.70;97.30;;;;;;4993415;28;20442;-84
2024/02/15 01:59:47;;;;;;;18.50;7.55;;;12.70;97.30;;;;;;4992130;28;20030;-84
2024/02/15 02:02:15;;;;;;;21.48;8.02;;;12.70;97.20;;;;;;4992773;28;20018;-84
2024/02/15 02:04:42;;;;;;;16.08;6.28;;;12.70;97.40;;;;;;4994107;28;20133;-84
2024/02/15 02:07:08;;;;;;;13.07;6.95;;;12.70;97.30;;;;;;4992240;28;20042;-84
2024/02/15 02:09:34;;;;;;;19.17;7.25;;;12.70;97.30;;;;;;4994368;28;20120;-85
2024/02/15 02:12:00;;;;;;;14.57;6.80;;;12.70;97.30;;;;;;4989215;28;20152;-84
2024/02/15 02:14:25;;;;;;;16.25;6.78;;;12.70;97.30;;;;;;4988664;28;20053;-84
2024/02/15 02:16:51;;;;;;;14.88;7.10;;;12.70;97.20;;;;;;5002159;28;20021;-84
2024/02/15 02:19:17;;;;;;;14.70;6.97;;;12.70;97.20;;;;;;4996842;28;20030;-84
2024/02/15 02:21:44;;;;;;;12.35;6.43;;;12.80;97.10;;;;;;4991099;28;20034;-84
2024/02/15 02:24:17;;;;;;;14.32;6.32;;;12.80;97.10;;;;;;4993991;28;20072;-84
2024/02/15 02:26:43;;;;;;;18.15;7.70;;;12.80;97.10;;;;;;4998469;28;20113;-84
2024/02/15 02:29:09;;;;;;;15.27;6.75;;;12.80;97.10;;;;;;4993057;28;20134;-84
2024/02/15 02:31:35;;;;;;;16.25;6.43;;;12.70;97.00;;;;;;4996518;28;20113;-84
2024/02/15 02:34:00;;;;;;;15.25;6.47;;;12.80;97.00;;;;;;4991467;28;20053;-83
2024/02/15 02:36:26;;;;;;;13.20;6.78;;;12.80;97.00;;;;;;4996434;28;20124;-84
2024/02/15 02:38:53;;;;;;;19.55;7.13;;;12.80;97.00;;;;;;4996255;28;20476;-84
2024/02/15 02:41:23;;;;;;;22.55;7.55;;;12.80;97.00;;;;;;4995867;28;20633;-84
2024/02/15 02:43:49;;;;;;;14.80;6.38;;;12.80;97.00;;;;;;4993649;28;20358;-84
2024/02/15 02:46:15;;;;;;;13.00;7.07;;;12.80;97.00;;;;;;4996393;28;20041;-84
2024/02/15 02:48:41;;;;;;;15.18;7.03;;;12.70;97.10;;;;;;4997888;28;20159;-84
2024/02/15 02:51:07;;;;;;;14.30;6.95;;;12.80;97.30;;;;;;4993744;28;20509;-84
2024/02/15 02:53:33;;;;;;;15.88;7.05;;;12.70;97.30;;;;;;4995523;28;20030;-84
2024/02/15 02:55:59;;;;;;;13.95;6.78;;;12.70;97.40;;;;;;5012698;28;20036;-84
2024/02/15 02:58:25;;;;;;;14.77;7.07;;;12.80;97.50;;;;;;4991881;28;20041;-83
2024/02/15 03:00:51;;;;;;;15.48;7.38;;;12.70;97.50;;;;;;4997461;28;20034;-84
2024/02/15 03:03:18;;;;;;;20.30;7.50;;;12.70;97.60;;;;;;4995260;28;20026;-83
2024/02/15 03:05:44;;;;;;;14.77;7.45;;;12.70;97.70;;;;;;4996076;28;20262;-83
2024/02/15 03:08:12;;;;;;;16.60;7.88;;;12.70;97.70;;;;;;4991463;28;20026;-84
2024/02/15 03:10:38;;;;;;;17.33;7.97;;;12.70;97.80;;;;;;4995838;28;20037;-83
2024/02/15 03:13:05;;;;;;;14.32;7.13;;;12.60;97.80;;;;;;4997156;28;20022;-84
2024/02/15 03:15:32;;;;;;;14.65;7.10;;;12.60;98.00;;;;;;4994871;28;20384;-84
2024/02/15 03:17:58;;;;;;;13.13;7.07;;;12.60;98.00;;;;;;4995143;28;20026;-83
2024/02/15 03:20:24;;;;;;;16.80;7.88;;;12.60;98.10;;;;;;4993931;28;20073;-83
2024/02/15 03:22:57;;;;;;;17.27;7.40;;;12.60;98.20;;;;;;4998756;28;20033;-84
2024/02/15 03:25:24;;;;;;;14.80;7.22;;;12.60;98.30;;;;;;4991834;28;20046;-84
2024/02/15 03:27:54;;;;;;;16.00;8.10;;;12.60;98.30;;;;;;4996296;28;20026;-84
2024/02/15 03:30:20;;;;;;;17.13;7.55;;;12.60;98.40;;;;;;4992131;28;20089;-83
2024/02/15 03:32:53;;;;;;;15.10;6.63;;;12.60;98.40;;;;;;4996692;28;20029;-84
2024/02/15 03:35:20;;;;;;;15.43;7.22;;;12.60;98.40;;;;;;4996403;28;20026;-84
2024/02/15 03:37:46;;;;;;;14.48;6.85;;;12.60;98.40;;;;;;4996742;28;20010;-83
2024/02/15 03:40:12;;;;;;;16.05;6.75;;;12.60;98.40;;;;;;4996015;28;20045;-84
2024/02/15 03:42:37;;;;;;;14.68;6.10;;;12.60;98.50;;;;;;5005573;28;20022;-83
2024/02/15 03:45:08;;;;;;;11.20;6.32;;;12.50;98.50;;;;;;5013637;28;20045;-84
2024/02/15 03:47:35;;;;;;;12.77;6.85;;;12.60;98.50;;;;;;4988487;28;20125;-84
2024/02/15 03:50:10;;;;;;;18.13;6.65;;;12.60;98.50;;;;;;4986526;28;20023;-84
2024/02/15 03:52:37;;;;;;;14.95;6.75;;;12.60;98.50;;;;;;4993524;28;20026;-85
2024/02/15 03:55:04;;;;;;;13.02;6.28;;;12.60;98.50;;;;;;4994686;28;20030;-85
2024/02/15 03:57:29;;;;;;;12.30;5.97;;;12.60;98.50;;;;;;4994589;28;20034;-85
2024/02/15 03:59:57;;;;;;;13.85;6.30;;;12.60;98.40;;;;;;4996266;28;20096;-84
2024/02/15 04:02:26;;;;;;;15.90;6.95;;;12.60;98.40;;;;;;4988568;28;20040;-84
2024/02/15 04:04:52;;;;;;;13.43;6.53;;;12.60;98.40;;;;;;4990794;28;20038;-85
2024/02/15 04:07:19;;;;;;;11.13;5.35;;;12.60;98.30;;;;;;5013138;28;20442;-84
2024/02/15 04:09:45;;;;;;;12.95;5.82;;;12.60;98.30;;;;;;4992432;28;20150;-85
2024/02/15 04:12:11;;;;;;;12.88;5.50;;;12.60;98.20;;;;;;4992877;28;20032;-85
2024/02/15 04:14:40;;;;;;;13.75;5.75;;;12.60;98.20;;;;;;4989071;28;20034;-84
2024/02/15 04:17:06;;;;;;;15.00;6.40;;;12.60;98.20;;;;;;4992348;28;20425;-85
2024/02/15 04:19:32;;;;;;;13.48;5.95;;;12.60;98.10;;;;;;4992295;28;20360;-85
2024/02/15 04:21:59;;;;;;;13.82;6.20;;;12.60;98.10;;;;;;4990128;28;21049;-85
2024/02/15 04:24:25;;;;;;;15.30;6.78;;;12.60;98.00;;;;;;4995092;28;20633;-84
2024/02/15 04:26:51;;;;;;;13.70;6.60;;;12.60;97.90;;;;;;4996310;28;20028;-84
2024/02/15 04:29:20;;;;;;;19.75;7.70;;;12.60;98.00;;;;;;4993988;28;20038;-84
2024/02/15 04:31:49;;;;;;;17.13;7.70;;;12.60;98.00;;;;;;4994736;28;20028;-84
2024/02/15 04:34:16;;;;;;;14.23;7.57;;;12.60;98.00;;;;;;4994596;28;20395;-85
2024/02/15 04:36:44;;;;;;;16.05;7.28;;;12.60;98.00;;;;;;4990787;28;20029;-84
2024/02/15 04:39:15;;;;;;;17.92;8.30;;;12.60;98.00;;;;;;4993572;28;20529;-85
2024/02/15 04:41:41;;;;;;;14.95;7.75;;;12.60;98.10;;;;;;4995922;28;20026;-85
2024/02/15 04:44:11;;;;;;;17.10;8.68;;;12.60;98.00;;;;;;5009917;28;20134;-84
2024/02/15 04:46:37;;;;;;;15.10;8.27;;;12.60;98.00;;;;;;4991568;28;20105;-85
2024/02/15 04:49:03;;;;;;;18.73;8.27;;;12.60;98.00;;;;;;4998346;28;20411;-85
2024/02/15 04:51:28;;;;;;;16.98;8.45;;;12.60;97.90;;;;;;4993494;28;20014;-85
2024/02/15 04:53:54;;;;;;;15.82;8.38;;;12.60;97.90;;;;;;4997964;28;20065;-84
2024/02/15 04:56:20;;;;;;;18.95;8.50;;;12.60;97.90;;;;;;4991205;28;20546;-84
2024/02/15 04:58:47;;;;;;;16.15;7.80;;;12.60;97.80;;;;;;4995037;28;20493;-84
2024/02/15 05:01:16;;;;;;;14.57;7.40;;;12.60;97.70;;;;;;5016651;28;20030;-85
2024/02/15 05:03:45;;;;;;;13.52;6.72;;;12.60;97.60;;;;;;4993055;28;20071;-85
2024/02/15 05:06:12;;;;;;;13.95;7.07;;;12.60;97.50;;;;;;4991531;28;20038;-85
2024/02/15 05:08:42;;;;;;;15.43;6.57;;;12.60;97.40;;;;;;4991066;28;20053;-84
2024/02/15 05:11:17;;;;;;;19.38;6.72;;;12.60;97.30;;;;;;4994166;28;20022;-85
2024/02/15 05:13:46;;;;;;;16.13;7.35;;;12.60;97.20;;;;;;4993432;28;20072;-85
2024/02/15 05:16:12;;;;;;;12.60;6.45;;;12.60;97.10;;;;;;4989554;28;20510;-85
2024/02/15 05:18:39;;;;;;;12.88;6.25;;;12.60;97.00;;;;;;4995185;28;20120;-85
2024/02/15 05:21:09;;;;;;;13.43;5.82;;;12.60;96.90;;;;;;4994560;28;20128;-86
2024/02/15 05:23:39;;;;;;;11.52;5.70;;;12.70;96.70;;;;;;4994194;28;20026;-85
2024/02/15 05:26:06;;;;;;;11.88;6.05;;;12.70;96.60;;;;;;5000860;28;20085;-84
2024/02/15 05:28:32;;;;;;;11.68;5.82;;;12.60;96.50;;;;;;4991385;28;20506;-85
2024/02/15 05:31:11;;;;;;;11.35;5.85;;;12.60;96.40;;;;;;4996000;28;20046;-84
2024/02/15 05:33:43;;;;;;;13.85;5.93;;;12.70;96.30;;;;;;4997243;28;20053;-85
2024/02/15 05:36:13;;;;;;;13.10;5.70;;;12.70;96.10;;;;;;4996417;28;20088;-85
2024/02/15 05:38:40;;;;;;;15.30;5.60;;;12.70;95.90;;;;;;4994613;28;20022;-85
2024/02/15 05:41:07;;;;;;;12.35;5.80;;;12.70;95.80;;;;;;4992839;28;20029;-86
2024/02/15 05:43:36;;;;;;;10.85;5.43;;;12.70;95.70;;;;;;4988349;28;20410;-86
2024/02/15 05:46:06;;;;;;;13.35;5.60;;;12.70;95.60;;;;;;4996152;28;20026;-85
2024/02/15 05:48:34;;;;;;;13.52;5.25;;;12.70;95.50;;;;;;4992695;28;20052;-84
2024/02/15 05:51:01;;;;;;;13.32;5.50;;;12.70;95.50;;;;;;4994148;28;20014;-86
2024/02/15 05:53:27;;;;;;;11.40;5.32;;;12.70;95.40;;;;;;5001110;28;20034;-86
2024/02/15 05:55:53;;;;;;;11.85;5.05;;;12.70;95.30;;;;;;5000859;28;20414;-86
2024/02/15 05:58:19;;;;;;;11.55;5.72;;;12.70;95.20;;;;;;4999731;28;20467;-86
2024/02/15 06:00:44;;;;;;;10.52;5.22;;;12.70;95.00;;;;;;4998537;28;20049;-83
2024/02/15 06:03:13;;;;;;;11.07;4.70;;;12.70;94.90;;;;;;4999587;28;20030;-86
2024/02/15 06:05:39;;;;;;;11.52;5.18;;;12.80;94.90;;;;;;4999951;28;20065;-85
2024/02/15 06:08:05;;;;;;;9.38;4.88;;;12.80;94.80;;;;;;4998778;28;20324;-85
2024/02/15 06:10:31;;;;;;;13.60;5.60;;;12.80;94.70;;;;;;4997450;28;20026;-85
2024/02/15 06:13:00;;;;;;;12.23;5.30;;;12.80;94.60;;;;;;4999738;28;20018;-85
2024/02/15 06:15:26;;;;;;;12.85;5.15;;;12.80;94.60;;;;;;4995253;28;20041;-85
2024/02/15 06:17:52;;;;;;;11.75;4.75;;;12.80;94.60;;;;;;4998767;28;20105;-85
2024/02/15 06:20:19;;;;;;;10.52;4.57;;;12.80;94.50;;;;;;4997728;28;20168;-85
2024/02/15 06:22:46;;;;;;;9.25;4.47;;;12.80;94.50;;;;;;4996549;28;20021;-86
2024/02/15 06:25:13;;;;;;;11.30;4.63;;;12.80;94.40;;;;;;4994059;28;20056;-85
2024/02/15 06:27:42;;;;;;;13.40;4.47;;;12.80;94.30;;;;;;4996730;28;20482;-84
2024/02/15 06:41:10;;;;;;;10.95;3.88;;;12.80;94.00;;;;;;4995348;28;20034;-85
2024/02/15 06:43:37;;;;;;;11.82;4.93;;;12.90;94.00;;;;;;4997733;28;20026;-85
2024/02/15 06:46:06;;;;;;;10.75;3.97;;;12.80;93.90;;;;;;4998862;28;20337;-85
2024/02/15 06:48:31;;;;;;;8.70;4.15;;;12.80;94.00;;;;;;4996225;28;20038;-85
2024/02/15 06:50:57;;;;;;;10.98;4.18;;;12.80;93.90;;;;;;5004378;28;20037;-86
2024/02/15 06:53:24;;;;;;;9.27;4.00;;;12.80;93.90;;;;;;4998373;28;20040;-85
2024/02/15 06:55:50;;;;;;;11.13;4.13;;;12.80;93.80;;;;;;4995592;28;20034;-85
2024/02/15 06:58:17;;;;;;;10.60;4.50;;;12.80;93.90;;;;;;4994653;28;20030;-84
2024/02/15 07:00:45;;;;;;;9.40;3.65;;;12.80;94.00;;;;;;4992986;28;20030;-86
2024/02/15 07:03:10;;;;;;;7.75;3.70;;;12.80;94.00;;;;;;4995905;28;20161;-86
2024/02/15 07:05:41;;;;;;;9.55;3.83;;;12.80;93.90;;;;;;4995068;28;20042;-85
2024/02/15 07:08:10;;;;;;;8.65;4.32;;;12.80;93.90;;;;;;5012711;28;20411;-87
2024/02/15 07:10:38;;;;;;;9.93;3.95;;;12.80;93.90;;;;;;4986898;28;21130;-87
2024/02/15 07:13:04;;;;;;;8.85;4.00;;;12.70;94.00;;;;;;4995889;28;20025;-85
2024/02/15 07:15:32;;;;;;;10.55;4.05;;;12.80;94.20;;;;;;4982739;28;20509;-86
2024/02/15 07:17:58;;;;;;;7.90;3.63;;;12.70;94.40;;;;;;4984550;28;20207;-84
2024/02/15 07:20:25;;;;;;;10.80;3.88;;;12.70;94.50;;;;;;4992982;28;20022;-84
2024/02/15 07:22:51;;;;;;;10.30;4.22;;;12.70;94.60;;;;;;4991457;28;20439;-86
2024/02/15 07:25:17;;;;;;;14.98;4.40;;;12.70;94.70;;;;;;4988404;28;20057;-85
2024/02/15 07:27:43;;;;;;;10.85;4.72;;;12.70;94.90;;;;;;4988797;28;20521;-86
2024/02/15 07:30:09;;;;;;;11.82;4.55;;;12.60;95.10;;;;;;4988243;28;20049;-85
2024/02/15 07:32:35;;;;;;;9.80;3.53;;;12.60;95.30;;;;;;4992482;28;20030;-85
2024/02/15 07:35:01;;;;;;;9.65;4.75;;;12.70;95.60;;;;;;4996929;28;20145;-85
2024/02/15 07:37:29;;;;;;;9.60;4.20;;;12.60;95.80;;;;;;5005574;28;20069;-84
2024/02/15 07:39:54;;;;;;;13.20;5.15;;;12.60;96.10;;;;;;4997649;28;20112;-85
2024/02/15 07:42:20;;;;;;;12.05;5.05;;;12.60;96.30;;;;;;4993798;28;20114;-83
2024/02/15 07:44:46;;;;;;;12.70;4.63;;;12.60;96.50;;;;;;4987399;28;20541;-85
2024/02/15 07:47:11;;;;;;;15.38;5.40;;;12.60;96.60;;;;;;4993566;28;20522;-85
2024/02/15 07:49:37;;;;;;;15.10;4.85;;;12.60;96.80;;;;;;4991463;28;20026;-85
2024/02/15 07:52:04;;;;;;;10.68;4.90;;;12.50;97.00;;;;;;4992293;28;20101;-85
2024/02/15 07:54:30;;;;;;;11.30;5.47;;;12.50;97.30;;;;;;4988562;28;20623;-74
2024/02/15 07:56:58;;;;;;;16.08;5.53;;;12.40;97.50;;;;;;4993084;28;20330;-74
2024/02/15 07:59:23;;;;;;;13.90;5.03;;;12.40;97.60;;;;;;4988363;28;20038;-76
2024/02/15 08:01:50;;;;;;;9.15;5.15;;;12.50;97.70;;;;;;4993291;28;20068;-76
2024/02/15 08:04:20;;;;;;;16.15;5.90;;;12.40;97.80;;;;;;4992150;28;20046;-77
2024/02/15 08:06:48;;;;;;;12.68;5.70;;;12.50;97.80;;;;;;4989882;28;20025;-75
2024/02/15 08:09:17;;;;;;;13.05;6.28;;;12.50;97.80;;;;;;4987579;28;20026;-76
2024/02/15 08:11:44;;;;;;;13.32;5.78;;;12.50;97.90;;;;;;4993463;28;20022;-75
2024/02/15 08:14:10;;;;;;;11.98;4.90;;;12.50;97.90;;;;;;4993117;28;20083;-76
2024/02/15 08:16:41;;;;;;;13.07;5.30;;;12.50;97.90;;;;;;4994728;28;20450;-78
2024/02/15 08:19:06;;;;;;;9.45;4.82;;;12.60;97.80;;;;;;5001001;28;20030;-74
2024/02/15 08:21:35;;;;;;;9.77;4.65;;;12.60;97.80;;;;;;5013399;28;20040;-75
2024/02/15 08:24:11;;;;;;;14.00;4.75;;;12.60;97.70;;;;;;5013744;28;20036;-75
2024/02/15 08:26:37;;;;;;;10.30;4.72;;;12.60;97.70;;;;;;5015141;28;20054;-74
2024/02/15 08:29:04;;;;;;;10.63;4.85;;;12.70;97.50;;;;;;5011383;28;20038;-75
2024/02/15 08:31:36;;;;;;;9.60;4.25;;;12.70;97.50;;;;;;5014782;28;20022;-75
2024/02/15 08:34:05;;;;;;;10.63;4.65;;;12.70;97.30;;;;;;5011470;28;20029;-74
2024/02/15 08:36:31;;;;;;;9.70;4.45;;;12.80;96.90;;;;;;5014220;28;20038;-75
2024/02/15 08:38:56;;;;;;;10.38;4.78;;;12.80;96.80;;;;;;5010539;28;20124;-75
2024/02/15 08:41:26;;;;;;;9.35;4.22;;;12.90;96.50;;;;;;5014386;28;20043;-75
2024/02/15 08:43:52;;;;;;;9.43;4.30;;;13.00;96.30;;;;;;5013337;28;20502;-75
2024/02/15 08:46:19;;;;;;;9.10;4.15;;;13.10;96.10;;;;;;5014360;28;20469;-75
2024/02/15 08:48:46;;;;;;;12.73;4.35;;;13.10;95.70;;;;;;5013343;28;20020;-75
2024/02/15 08:51:12;;;;;;;8.48;3.85;;;13.20;95.40;;;;;;5013521;28;20045;-75
2024/02/15 08:53:38;;;;;;;10.25;3.80;;;13.30;95.20;;;;;;5011488;28;20459;-75
2024/02/15 08:56:08;;;;;;;8.77;3.60;;;13.30;94.70;;;;;;5012501;28;20053;-75
2024/02/15 08:58:35;;;;;;;9.18;3.75;;;13.50;94.20;;;;;;5013131;28;20024;-76
2024/02/15 09:01:02;;;;;;;9.93;3.50;;;13.60;94.10;;;;;;5007757;28;20485;-75
2024/02/15 09:03:28;;;;;;;7.68;3.55;;;13.60;93.50;;;;;;5013884;28;20053;-75
2024/02/15 09:05:54;;;;;;;8.85;3.95;;;13.60;93.50;;;;;;5012696;28;20066;-76
2024/02/15 09:08:20;;;;;;;9.88;4.65;;;13.70;93.00;;;;;;5013472;28;20034;-75
2024/02/15 09:10:48;;;;;;;8.73;3.60;;;13.70;93.00;;;;;;5012049;28;20026;-75
2024/02/15 09:13:14;;;;;;;7.60;3.78;;;13.80;92.90;;;;;;5013353;28;20038;-74
2024/02/15 09:15:41;;;;;;;9.02;3.72;;;13.90;92.70;;;;;;5012746;28;20038;-75
2024/02/15 09:18:09;;;;;;;8.50;3.83;;;14.00;92.50;;;;;;5014177;28;20033;-75
2024/02/15 09:20:37;;;;;;;7.20;3.05;;;14.00;92.30;;;;;;5009738;28;20041;-74
2024/02/15 09:23:09;;;;;;;8.23;3.60;;;14.00;92.20;;;;;;5010738;28;20026;-75
2024/02/15 09:25:37;;;;;;;9.82;3.80;;;14.00;92.10;;;;;;4992528;28;20153;-75
2024/02/15 09:28:03;;;;;;;8.65;3.38;;;14.10;92.10;;;;;;4989383;28;20030;-75
2024/02/15 09:30:31;;;;;;;9.38;3.25;;;14.10;92.20;;;;;;4992171;28;20034;-75
2024/02/15 09:32:57;;;;;;;7.25;3.30;;;14.10;92.10;;;;;;4996674;28;20215;-76
2024/02/15 09:35:23;;;;;;;8.55;3.63;;;14.10;91.90;;;;;;4990737;28;20475;-76
2024/02/15 09:37:49;;;;;;;7.60;3.25;;;14.20;91.70;;;;;;4995383;28;20441;-76
2024/02/15 09:40:17;;;;;;;8.25;3.70;;;14.20;91.70;;;;;;4990124;28;20031;-75
2024/02/15 09:42:44;;;;;;;8.77;3.25;;;14.20;91.40;;;;;;4995852;28;20030;-77
2024/02/15 09:45:15;;;;;;;8.68;3.75;;;14.20;91.30;;;;;;4993663;28;20512;-75
2024/02/15 09:47:42;;;;;;;8.95;3.58;;;14.20;91.30;;;;;;4993211;28;20025;-74
2024/02/15 09:50:10;;;;;;;10.23;3.38;;;14.20;91.00;;;;;;4984842;28;20129;-76
2024/02/15 09:52:43;;;;;;;9.60;3.33;;;14.20;90.90;;;;;;4989142;28;20484;-74
2024/02/15 09:55:13;;;;;;;9.43;3.63;;;14.30;90.80;;;;;;4984277;28;20056;-74
2024/02/15 09:57:42;;;;;;;8.88;3.30;;;14.20;90.60;;;;;;4990160;28;20052;-76
2024/02/15 10:00:08;;;;;;;7.68;3.17;;;14.30;90.60;;;;;;4991356;28;20033;-76
2024/02/15 10:02:36;;;;;;;9.05;3.58;;;14.30;90.30;;;;;;4996166;28;20072;-75
2024/02/15 10:05:03;;;;;;;10.77;3.92;;;14.40;90.10;;;;;;4995177;28;20057;-75
2024/02/15 10:07:28;;;;;;;8.05;3.35;;;14.50;89.70;;;;;;4993499;28;20029;-75
2024/02/15 10:09:55;;;;;;;12.00;4.28;;;14.60;89.80;;;;;;4992582;28;20312;-76
2024/02/15 10:12:21;;;;;;;9.68;3.28;;;14.70;89.10;;;;;;4989555;28;20030;-76
2024/02/15 10:14:51;;;;;;;7.43;3.33;;;14.80;88.90;;;;;;4994963;28;20044;-77
2024/02/15 10:17:19;;;;;;;8.73;4.05;;;14.90;88.60;;;;;;4994111;28;20603;-74
2024/02/15 10:20:02;;;;;;;11.20;4.07;;;15.10;88.20;;;;;;4988861;28;20047;-76
2024/02/15 10:22:27;;;;;;;8.32;3.55;;;15.30;87.70;;;;;;4990642;28;20056;-77
2024/02/15 10:25:10;;;;;;;8.90;3.17;;;15.60;87.20;;;;;;4998531;28;20033;-77
2024/02/15 10:27:38;;;;;;;11.27;3.25;;;15.80;86.80;;;;;;4990800;28;20037;-75
2024/02/15 10:30:24;;;;;;;8.73;3.10;;;16.10;85.50;;;;;;4991288;28;20517;-75
2024/02/15 10:32:50;;;;;;;7.03;2.67;;;16.20;84.90;;;;;;4999186;28;20258;-75
2024/02/15 10:35:20;;;;;;;7.63;3.08;;;16.40;84.20;;;;;;4992725;28;20042;-77
2024/02/15 10:37:47;;;;;;;9.77;3.17;;;16.50;84.20;;;;;;4992398;28;20024;-75
2024/02/15 10:40:13;;;;;;;7.45;2.60;;;16.40;82.90;;;;;;4989761;28;20034;-76
2024/02/15 10:42:42;;;;;;;10.25;3.63;;;16.40;83.30;;;;;;4990508;28;20034;-77
2024/02/15 10:45:10;;;;;;;8.63;3.17;;;16.40;83.50;;;;;;4993787;28;20734;-74
2024/02/15 10:47:39;;;;;;;8.77;3.05;;;16.30;83.60;;;;;;4992060;28;20022;-77
2024/02/15 10:50:06;;;;;;;9.32;3.13;;;16.30;83.70;;;;;;4991847;28;20129;-76
2024/02/15 10:52:36;;;;;;;5.95;2.58;;;16.40;83.50;;;;;;4997961;28;20508;-78
2024/02/15 10:55:05;;;;;;;7.47;3.05;;;16.50;82.70;;;;;;4988400;28;20326;-76
2024/02/15 10:57:39;;;;;;;10.75;2.95;;;16.60;82.00;;;;;;4989728;28;20028;-73
2024/02/15 11:00:10;;;;;;;9.38;2.85;;;16.60;82.40;;;;;;4992363;28;20026;-74
2024/02/15 11:03:06;;;;;;;8.57;3.30;;;16.50;82.50;;;;;;4985283;28;20498;-77
2024/02/15 11:05:34;;;;;;;8.05;3.97;;;16.50;83.20;;;;;;4997524;28;20474;-77
2024/02/15 11:08:04;;;;;;;9.55;4.20;;;16.40;83.20;;;;;;4993506;28;20029;-76
2024/02/15 11:10:31;;;;;;;8.30;4.22;;;16.30;83.40;;;;;;4988476;28;20109;-78
2024/02/15 11:12:58;;;;;;;8.15;4.00;;;16.30;83.50;;;;;;4995270;28;20025;-75
2024/02/15 11:15:36;;;;;;;10.10;3.40;;;16.30;84.00;;;;;;4992271;28;20050;-75
2024/02/15 11:18:05;;;;;;;7.47;3.30;;;16.40;83.30;;;;;;4988802;28;20029;-77
2024/02/15 11:20:35;;;;;;;9.43;3.63;;;16.50;83.00;;;;;;4994176;28;20050;-78
2024/02/15 11:23:03;;;;;;;9.65;3.58;;;16.40;82.70;;;;;;4997695;28;20554;-79
2024/02/15 11:25:39;;;;;;;8.82;3.40;;;16.30;82.70;;;;;;4992963;28;20088;-82
2024/02/15 11:28:23;;;;;;;8.15;3.38;;;16.40;83.20;;;;;;5005247;28;20033;-79
2024/02/15 11:30:52;;;;;;;8.13;3.13;;;16.50;82.50;;;;;;5011950;28;20030;-80
2024/02/15 11:33:38;;;;;;;8.70;3.03;;;16.50;82.50;;;;;;5000659;28;20026;-76
2024/02/15 11:36:11;;;;;;;8.52;3.03;;;16.50;82.30;;;;;;4996908;28;20046;-76
2024/02/15 11:38:41;;;;;;;9.63;3.47;;;16.40;82.20;;;;;;4987807;28;20368;-74
2024/02/15 11:41:08;;;;;;;7.95;3.08;;;16.40;82.50;;;;;;4993627;28;20050;-75
2024/02/15 11:43:45;;;;;;;9.65;3.60;;;16.40;82.60;;;;;;4995969;28;20050;-77
2024/02/15 11:46:18;;;;;;;9.25;3.70;;;16.40;82.30;;;;;;4989494;28;20034;-75
2024/02/15 11:48:52;;;;;;;10.55;3.20;;;16.40;82.40;;;;;;4993491;28;20028;-75
2024/02/15 11:51:30;;;;;;;12.73;3.40;;;16.40;82.10;;;;;;4993147;28;20498;-76
2024/02/15 11:54:07;;;;;;;11.32;3.70;;;16.30;81.20;;;;;;4991320;28;20423;-73
2024/02/15 11:56:47;;;;;;;8.20;3.20;;;16.30;81.00;;;;;;4993396;28;20394;-77
2024/02/15 11:59:42;;;;;;;8.68;3.10;;;16.30;81.10;;;;;;4989215;28;20082;-76
2024/02/15 12:18:51;;;;;;;10.13;3.78;;;16.70;80.10;;;;;;4992815;28;20378;-75
2024/02/15 12:21:22;;;;;;;6.55;3.20;;;16.70;79.90;;;;;;4995208;28;20025;-74
2024/02/15 12:23:49;;;;;;;6.57;2.78;;;16.80;79.60;;;;;;4989878;28;20064;-75
2024/02/15 12:26:25;;;;;;;7.03;2.88;;;16.80;79.50;;;;;;4981792;28;20025;-76
2024/02/15 12:28:54;;;;;;;7.78;2.90;;;17.00;79.20;;;;;;4986374;28;20363;-75
2024/02/15 12:31:20;;;;;;;9.25;3.15;;;17.10;78.80;;;;;;4989019;28;20357;-78
2024/02/15 12:33:48;;;;;;;8.27;2.67;;;17.30;78.80;;;;;;4988789;28;20026;-75
2024/02/15 12:36:14;;;;;;;5.82;2.92;;;17.60;77.80;;;;;;5005651;28;20046;-75
2024/02/15 12:38:42;;;;;;;7.70;2.90;;;17.90;77.60;;;;;;4985261;28;20171;-77
2024/02/15 12:41:21;;;;;;;10.68;3.83;;;18.00;77.20;;;;;;4985193;28;20053;-76
2024/02/15 12:43:53;;;;;;;8.90;3.45;;;17.90;77.40;;;;;;4984167;28;20026;-76
2024/02/15 12:46:19;;;;;;;7.68;3.10;;;17.90;78.20;;;;;;4982857;28;21000;-75
2024/02/15 12:48:46;;;;;;;7.43;2.80;;;17.90;78.50;;;;;;4982917;28;20374;-74
2024/02/15 12:51:15;;;;;;;6.70;2.63;;;17.80;77.80;;;;;;4984050;28;20029;-75
2024/02/15 12:53:42;;;;;;;5.90;2.65;;;17.60;76.40;;;;;;4981308;28;20027;-74
2024/02/15 12:56:09;;;;;;;6.68;3.00;;;17.50;76.70;;;;;;4985389;28;20145;-74
2024/02/15 12:58:35;;;;;;;7.85;2.90;;;17.50;76.40;;;;;;4987027;28;20026;-73
2024/02/15 13:01:01;;;;;;;6.88;3.08;;;17.60;76.70;;;;;;4984070;28;20077;-75
2024/02/15 13:03:27;;;;;;;9.60;2.90;;;17.60;77.20;;;;;;4989577;28;20033;-74
2024/02/15 13:05:53;;;;;;;8.50;3.30;;;17.60;77.20;;;;;;4994085;28;20034;-74
2024/02/15 13:08:19;;;;;;;8.35;2.88;;;17.60;77.20;;;;;;5003227;28;20056;-73
2024/02/15 13:10:46;;;;;;;7.00;2.83;;;17.80;77.00;;;;;;4987382;28;20129;-74